createdAt,value
2018-11-29T00:00:47.251Z,74.40
2018-11-29T00:03:15.891Z,75.00
2018-11-29T00:05:44.487Z,73.90
2018-11-29T00:08:13.129Z,74.50
2018-11-29T00:10:41.724Z,74.40
2018-11-29T00:13:10.332Z,74.10
2018-11-29T00:15:38.962Z,74.50
2018-11-29T00:18:07.574Z,74.10
2018-11-29T00:20:36.184Z,74.40
2018-11-29T00:23:04.909Z,74.90
2018-11-29T00:25:33.513Z,74.70
2018-11-29T00:28:02.110Z,74.40
2018-11-29T00:30:30.710Z,74.90
2018-11-29T00:32:59.299Z,75.10
2018-11-29T00:35:27.890Z,74.00
2018-11-29T00:37:56.509Z,73.80
2018-11-29T00:40:25.180Z,74.20
2018-11-29T00:42:54.302Z,74.20
2018-11-29T00:45:24.092Z,73.90
2018-11-29T00:47:53.295Z,74.40
2018-11-29T00:50:22.460Z,73.60
2018-11-29T00:52:51.644Z,74.40
2018-11-29T00:55:22.648Z,74.40
2018-11-29T00:57:52.177Z,73.90
2018-11-29T01:00:22.756Z,73.50
2018-11-29T01:02:51.504Z,73.60
2018-11-29T01:05:20.329Z,73.70
2018-11-29T01:07:50.102Z,74.00
2018-11-29T01:10:19.182Z,74.10
2018-11-29T01:12:48.527Z,74.30
2018-11-29T01:15:18.090Z,74.00
2018-11-29T01:17:47.740Z,73.80
2018-11-29T01:20:17.870Z,74.20
2018-11-29T01:22:47.173Z,73.30
2018-11-29T01:25:16.462Z,73.00
2018-11-29T01:27:46.939Z,73.00
2018-11-29T01:30:16.760Z,72.30
2018-11-29T01:32:46.199Z,72.30
2018-11-29T01:35:17.000Z,72.60
2018-11-29T01:37:45.609Z,73.20
2018-11-29T01:40:16.048Z,72.10
2018-11-29T01:42:46.788Z,72.50
2018-11-29T01:45:15.505Z,72.40
2018-11-29T01:47:44.127Z,72.80
2018-11-29T01:50:12.795Z,72.40
2018-11-29T01:52:41.459Z,71.50
2018-11-29T01:55:10.365Z,71.00
2018-11-29T01:57:39.011Z,71.40
2018-11-29T02:00:13.016Z,72.00
2018-11-29T02:02:41.788Z,71.10
2018-11-29T02:05:11.382Z,71.00
2018-11-29T02:07:40.022Z,70.10
2018-11-29T02:10:17.016Z,69.50
2018-11-29T02:12:45.723Z,69.70
2018-11-29T02:15:14.443Z,69.30
2018-11-29T02:17:43.131Z,69.70
2018-11-29T02:20:16.024Z,69.70
2018-11-29T02:22:44.755Z,69.10
2018-11-29T02:25:13.450Z,68.80
2018-11-29T02:27:42.088Z,68.40
2018-11-29T02:30:12.959Z,68.60
2018-11-29T02:32:41.582Z,68.80
2018-11-29T02:35:10.196Z,68.30
2018-11-29T02:37:38.813Z,68.40
2018-11-29T02:40:11.109Z,68.90
2018-11-29T02:42:40.056Z,68.30
2018-11-29T02:45:11.140Z,69.00
2018-11-29T02:47:39.847Z,68.30
2018-11-29T02:50:09.430Z,68.40
2018-11-29T02:52:38.026Z,68.30
2018-11-29T02:55:10.877Z,68.30
2018-11-29T02:57:39.641Z,68.30
2018-11-29T03:00:12.655Z,68.80
2018-11-29T03:02:41.285Z,68.10
2018-11-29T03:05:09.973Z,68.10
2018-11-29T03:07:38.850Z,68.10
2018-11-29T03:10:09.544Z,68.30
2018-11-29T03:12:38.158Z,68.30
2018-11-29T03:15:14.231Z,67.90
2018-11-29T03:17:43.221Z,68.10
2018-11-29T03:20:12.715Z,68.50
2018-11-29T03:22:41.386Z,68.10
2018-11-29T03:25:12.112Z,68.30
2018-11-29T03:27:41.623Z,67.70
2018-11-29T03:30:14.919Z,68.30
2018-11-29T03:32:43.596Z,68.10
2018-11-29T03:35:13.066Z,67.80
2018-11-29T03:37:41.674Z,67.90
2018-11-29T03:40:12.488Z,67.80
2018-11-29T03:42:41.160Z,68.30
2018-11-29T03:45:13.979Z,67.70
2018-11-29T03:47:42.680Z,68.10
2018-11-29T03:50:12.685Z,67.90
2018-11-29T03:52:41.334Z,68.30
2018-11-29T03:55:10.804Z,67.40
2018-11-29T03:57:39.990Z,67.80
2018-11-29T04:00:13.900Z,67.40
2018-11-29T04:02:42.716Z,68.10
2018-11-29T04:05:11.362Z,67.80
2018-11-29T04:07:40.045Z,68.10
2018-11-29T04:10:13.061Z,67.40
2018-11-29T04:12:42.001Z,66.90
2018-11-29T04:15:11.860Z,67.00
2018-11-29T04:17:41.258Z,66.90
2018-11-29T04:20:10.880Z,67.40
2018-11-29T04:22:39.532Z,66.90
2018-11-29T04:25:09.809Z,67.10
2018-11-29T04:27:38.466Z,67.40
2018-11-29T04:30:09.676Z,67.40
2018-11-29T04:32:38.302Z,66.40
2018-11-29T04:35:08.148Z,66.40
2018-11-29T04:37:36.730Z,66.40
2018-11-29T04:40:06.934Z,66.50
2018-11-29T04:42:35.585Z,66.40
2018-11-29T04:45:04.952Z,66.30
2018-11-29T04:47:33.548Z,66.60
2018-11-29T04:50:02.175Z,67.00
2018-11-29T04:52:30.749Z,66.90
2018-11-29T04:54:59.415Z,66.80
2018-11-29T04:57:28.041Z,66.90
2018-11-29T04:59:56.690Z,66.90
2018-11-29T05:02:25.330Z,68.30
2018-11-29T05:04:53.960Z,67.60
2018-11-29T05:07:22.562Z,67.70
2018-11-29T05:09:51.207Z,67.50
2018-11-29T05:12:19.832Z,66.80
2018-11-29T05:14:48.427Z,66.60
2018-11-29T05:17:17.125Z,66.70
2018-11-29T05:19:45.745Z,68.20
2018-11-29T05:22:14.322Z,67.20
2018-11-29T05:24:43.033Z,67.50
2018-11-29T05:27:11.680Z,67.40
2018-11-29T05:29:40.313Z,67.30
2018-11-29T05:32:08.956Z,67.50
2018-11-29T05:34:37.580Z,67.40
2018-11-29T05:37:06.839Z,67.40
2018-11-29T05:39:35.441Z,67.40
2018-11-29T05:42:04.096Z,68.50
2018-11-29T05:44:33.368Z,68.80
2018-11-29T05:47:02.033Z,69.50
2018-11-29T05:49:30.625Z,70.20
2018-11-29T05:51:59.499Z,71.00
2018-11-29T05:54:28.218Z,71.00
2018-11-29T05:56:56.858Z,71.20
2018-11-29T05:59:25.492Z,71.40
2018-11-29T06:01:54.700Z,72.70
2018-11-29T06:04:23.336Z,72.00
2018-11-29T06:06:51.940Z,72.20
2018-11-29T06:09:20.561Z,72.40
2018-11-29T06:11:49.186Z,72.90
2018-11-29T06:14:17.806Z,73.30
2018-11-29T06:16:46.455Z,73.60
2018-11-29T06:19:15.068Z,73.90
2018-11-29T06:21:43.752Z,73.40
2018-11-29T06:24:13.616Z,73.50
2018-11-29T06:26:41.065Z,73.40
2018-11-29T06:29:09.671Z,73.50
2018-11-29T06:31:38.323Z,73.40
2018-11-29T06:34:07.403Z,73.30
2018-11-29T06:36:36.061Z,73.50
2018-11-29T06:39:06.963Z,74.10
2018-11-29T06:41:35.654Z,73.90
2018-11-29T06:44:04.421Z,74.20
2018-11-29T06:46:33.069Z,74.80
2018-11-29T06:49:01.874Z,74.10
2018-11-29T06:51:30.480Z,73.80
2018-11-29T06:54:00.035Z,73.70
2018-11-29T06:56:28.638Z,73.50
2018-11-29T06:58:57.326Z,73.70
2018-11-29T07:01:26.053Z,73.90
2018-11-29T07:03:54.750Z,73.80
2018-11-29T07:06:23.342Z,74.00
2018-11-29T07:08:52.003Z,74.10
2018-11-29T07:11:20.613Z,74.80
2018-11-29T07:13:49.241Z,74.40
2018-11-29T07:16:17.903Z,75.20
2018-11-29T07:18:46.554Z,74.40
2018-11-29T07:21:26.465Z,74.40
2018-11-29T07:23:55.473Z,74.40
2018-11-29T07:26:24.089Z,74.20
2018-11-29T07:28:52.717Z,74.90
2018-11-29T07:31:21.449Z,74.90
2018-11-29T07:33:50.063Z,74.90
2018-11-29T07:36:18.743Z,74.80
2018-11-29T07:38:47.347Z,74.60
2018-11-29T07:41:15.957Z,74.60
2018-11-29T07:43:44.596Z,74.40
2018-11-29T07:46:13.217Z,73.90
2018-11-29T07:48:41.853Z,74.50
2018-11-29T07:51:10.547Z,74.60
2018-11-29T07:53:39.206Z,74.70
2018-11-29T07:56:08.026Z,74.50
2018-11-29T07:58:36.716Z,74.50
2018-11-29T08:01:06.129Z,73.90
2018-11-29T08:03:34.811Z,73.50
2018-11-29T08:06:03.513Z,73.30
2018-11-29T08:08:32.149Z,73.10
2018-11-29T08:11:00.747Z,72.90
2018-11-29T08:13:29.429Z,73.10
2018-11-29T08:15:58.009Z,73.00
2018-11-29T08:18:26.614Z,72.80
2018-11-29T08:20:55.272Z,72.50
2018-11-29T08:23:23.857Z,71.60
2018-11-29T08:25:52.469Z,71.10
2018-11-29T08:28:21.125Z,71.10
2018-11-29T08:30:49.716Z,70.30
2018-11-29T08:33:18.353Z,69.90
2018-11-29T08:35:47.096Z,69.20
2018-11-29T08:38:15.719Z,68.90
2018-11-29T08:40:44.339Z,68.40
2018-11-29T08:43:13.030Z,68.30
2018-11-29T08:45:41.681Z,68.30
2018-11-29T08:48:10.350Z,67.60
2018-11-29T08:50:39.097Z,66.90
2018-11-29T08:53:07.767Z,66.50
2018-11-29T08:55:36.419Z,66.50
2018-11-29T08:58:05.539Z,66.00
2018-11-29T09:00:34.138Z,65.80
2018-11-29T09:03:02.795Z,66.30
2018-11-29T09:05:33.967Z,65.50
2018-11-29T09:08:00.180Z,64.80
2018-11-29T09:10:31.640Z,65.00
2018-11-29T09:12:57.503Z,64.80
2018-11-29T09:15:26.156Z,64.20
2018-11-29T09:17:54.789Z,64.30
2018-11-29T09:20:23.512Z,63.90
2018-11-29T09:22:52.123Z,63.60
2018-11-29T09:25:21.832Z,63.90
2018-11-29T09:27:50.684Z,63.40
2018-11-29T09:30:20.586Z,63.30
2018-11-29T09:32:50.173Z,63.50
2018-11-29T09:35:18.903Z,63.00
2018-11-29T09:37:47.561Z,62.90
2018-11-29T09:40:17.872Z,62.50
2018-11-29T09:42:46.778Z,61.80
2018-11-29T09:45:22.548Z,61.30
2018-11-29T09:47:53.210Z,61.40
2018-11-29T09:50:21.996Z,61.00
2018-11-29T09:52:50.623Z,60.50
2018-11-29T09:55:19.232Z,60.60
2018-11-29T09:57:49.009Z,60.80
2018-11-29T10:00:27.035Z,61.00
2018-11-29T10:02:52.375Z,60.60
2018-11-29T10:05:20.982Z,60.50
2018-11-29T10:07:49.557Z,60.40
2018-11-29T10:10:18.237Z,59.80
2018-11-29T10:12:46.857Z,59.40
2018-11-29T10:15:15.466Z,58.80
2018-11-29T10:17:44.121Z,58.70
2018-11-29T10:20:13.230Z,57.90
2018-11-29T10:22:42.712Z,57.70
2018-11-29T10:25:13.598Z,58.20
2018-11-29T10:27:43.758Z,58.30
2018-11-29T10:31:17.465Z,57.90
2018-11-29T10:33:46.141Z,57.70
2018-11-29T10:36:14.832Z,56.70
2018-11-29T10:38:43.532Z,56.90
2018-11-29T10:41:12.920Z,56.80
2018-11-29T10:43:40.845Z,56.10
2018-11-29T10:46:09.520Z,56.40
2018-11-29T10:48:38.201Z,56.80
2018-11-29T10:51:06.951Z,56.60
2018-11-29T10:53:37.723Z,56.80
2018-11-29T10:56:04.281Z,56.20
2018-11-29T10:58:32.909Z,56.70
2018-11-29T11:01:07.008Z,56.20
2018-11-29T11:03:35.607Z,56.70
2018-11-29T11:06:04.212Z,56.20
2018-11-29T11:08:32.852Z,56.00
2018-11-29T11:11:07.303Z,55.70
2018-11-29T11:13:38.052Z,54.90
2018-11-29T11:16:07.280Z,54.60
2018-11-29T11:18:36.078Z,54.10
2018-11-29T11:21:04.761Z,54.20
2018-11-29T11:23:33.384Z,54.00
2018-11-29T11:26:01.984Z,54.30
2018-11-29T11:28:30.648Z,54.30
2018-11-29T11:30:59.253Z,54.60
2018-11-29T11:33:27.899Z,54.00
2018-11-29T11:35:56.568Z,53.80
2018-11-29T11:38:25.244Z,54.10
2018-11-29T11:40:53.984Z,53.80
2018-11-29T11:43:22.651Z,53.90
2018-11-29T11:45:51.295Z,53.30
2018-11-29T11:48:19.912Z,53.10
2018-11-29T11:50:48.594Z,53.30
2018-11-29T11:53:17.206Z,53.30
2018-11-29T11:55:45.856Z,53.50
2018-11-29T11:58:14.546Z,53.70
2018-11-29T12:00:43.185Z,53.50
2018-11-29T12:03:13.419Z,53.00
2018-11-29T12:05:42.071Z,53.40
2018-11-29T12:08:10.756Z,53.60
2018-11-29T12:10:40.625Z,53.70
2018-11-29T12:13:09.370Z,54.00
2018-11-29T12:15:38.485Z,53.60
2018-11-29T12:18:09.100Z,53.60
2018-11-29T12:20:37.706Z,53.50
2018-11-29T12:23:07.078Z,53.70
2018-11-29T12:25:35.898Z,53.90
2018-11-29T12:28:04.577Z,53.60
2018-11-29T12:30:35.988Z,53.40
2018-11-29T12:33:06.293Z,52.60
2018-11-29T12:35:34.935Z,52.60
2018-11-29T12:38:03.581Z,52.60
2018-11-29T12:40:32.305Z,53.00
2018-11-29T12:43:00.933Z,53.00
2018-11-29T12:45:29.601Z,53.50
2018-11-29T12:47:58.307Z,53.70
2018-11-29T12:50:27.515Z,53.80
2018-11-29T12:52:56.190Z,54.10
2018-11-29T12:55:26.609Z,54.10
2018-11-29T12:58:04.813Z,54.30
2018-11-29T13:00:24.864Z,54.40
2018-11-29T13:02:56.239Z,54.40
2018-11-29T13:05:25.415Z,54.70
2018-11-29T13:07:54.022Z,54.90
2018-11-29T13:10:29.335Z,54.60
2018-11-29T13:12:57.962Z,54.80
2018-11-29T13:15:29.065Z,54.80
2018-11-29T13:17:58.701Z,55.20
2018-11-29T13:20:32.364Z,54.90
2018-11-29T13:22:55.969Z,55.20
2018-11-29T13:25:25.917Z,55.70
2018-11-29T13:27:54.561Z,56.00
2018-11-29T13:30:23.635Z,56.60
2018-11-29T13:32:54.421Z,56.30
2018-11-29T13:35:32.894Z,56.30
2018-11-29T13:38:11.493Z,56.40
2018-11-29T13:40:40.924Z,56.60
2018-11-29T13:43:09.553Z,56.80
2018-11-29T13:45:38.404Z,57.30
2018-11-29T13:48:08.733Z,57.90
2018-11-29T13:50:37.683Z,57.80
2018-11-29T13:53:06.358Z,58.00
2018-11-29T13:55:35.124Z,56.70
2018-11-29T13:58:03.743Z,56.70
2018-11-29T14:00:32.366Z,56.30
2018-11-29T14:03:05.169Z,55.90
2018-11-29T14:05:33.850Z,56.30
2018-11-29T14:08:02.452Z,56.60
2018-11-29T14:10:31.085Z,56.90
2018-11-29T14:12:59.681Z,57.30
2018-11-29T14:15:28.995Z,57.70
2018-11-29T14:17:57.634Z,57.90
2018-11-29T14:20:26.257Z,58.20
2018-11-29T14:22:54.897Z,58.50
2018-11-29T14:25:23.528Z,58.80
2018-11-29T14:27:54.271Z,59.00
2018-11-29T14:30:25.089Z,59.50
2018-11-29T14:32:54.696Z,59.90
2018-11-29T14:35:23.342Z,60.20
2018-11-29T14:37:51.985Z,59.90
2018-11-29T14:40:21.636Z,61.00
2018-11-29T14:42:50.280Z,61.10
2018-11-29T14:45:20.032Z,61.50
2018-11-29T14:47:48.710Z,61.90
2018-11-29T14:50:20.782Z,62.40
2018-11-29T14:52:49.474Z,62.70
2018-11-29T14:55:18.132Z,62.90
2018-11-29T14:57:46.803Z,63.20
2018-11-29T15:00:15.411Z,64.10
2018-11-29T15:02:44.215Z,63.90
2018-11-29T15:05:17.572Z,64.20
2018-11-29T15:07:46.325Z,64.60
2018-11-29T15:10:14.980Z,64.90
2018-11-29T15:12:43.667Z,64.80
2018-11-29T15:15:13.076Z,65.20
2018-11-29T15:17:42.617Z,65.10
2018-11-29T15:20:13.798Z,65.80
2018-11-29T15:22:42.527Z,65.90
2018-11-29T15:25:11.186Z,66.00
2018-11-29T15:27:39.817Z,65.70
2018-11-29T15:30:11.363Z,66.10
2018-11-29T15:32:39.989Z,66.20
2018-11-29T15:35:08.950Z,66.50
2018-11-29T15:37:37.708Z,67.10
2018-11-29T15:40:09.110Z,67.10
2018-11-29T15:42:37.719Z,67.20
2018-11-29T15:45:09.209Z,67.00
2018-11-29T15:47:38.151Z,67.20
2018-11-29T15:50:12.339Z,67.80
2018-11-29T15:52:41.274Z,67.50
2018-11-29T15:55:12.835Z,67.50
2018-11-29T15:57:41.880Z,67.70
2018-11-29T16:00:14.492Z,67.70
2018-11-29T16:02:43.824Z,68.30
2018-11-29T16:05:12.779Z,68.00
2018-11-29T16:07:42.079Z,68.20
2018-11-29T16:10:12.294Z,68.10
2018-11-29T16:12:41.411Z,68.00
2018-11-29T16:15:13.172Z,68.10
2018-11-29T16:17:42.222Z,68.10
2018-11-29T16:20:12.790Z,68.10
2018-11-29T16:22:41.761Z,68.60
2018-11-29T16:25:11.770Z,68.40
2018-11-29T16:27:40.755Z,69.00
2018-11-29T16:30:19.090Z,68.50
2018-11-29T16:32:48.202Z,68.20
2018-11-29T16:35:17.187Z,68.20
2018-11-29T16:37:46.162Z,68.40
2018-11-29T16:40:15.119Z,68.70
2018-11-29T16:42:44.061Z,68.70
2018-11-29T16:45:13.978Z,68.70
2018-11-29T16:47:43.218Z,68.50
2018-11-29T16:50:13.496Z,68.30
2018-11-29T16:52:42.570Z,68.30
2018-11-29T16:55:12.452Z,67.70
2018-11-29T16:57:43.273Z,67.80
2018-11-29T17:00:18.406Z,67.50
2018-11-29T17:02:47.401Z,67.10
2018-11-29T17:05:17.670Z,67.00
2018-11-29T17:07:46.737Z,67.10
2018-11-29T17:10:16.930Z,67.00
2018-11-29T17:12:48.681Z,67.00
2018-11-29T17:15:18.640Z,67.00
2018-11-29T17:17:47.623Z,67.00
2018-11-29T17:20:18.042Z,66.90
2018-11-29T17:22:48.632Z,66.60
2018-11-29T17:25:17.666Z,66.70
2018-11-29T17:27:46.738Z,66.80
2018-11-29T17:30:18.856Z,66.20
2018-11-29T17:32:48.273Z,66.20
2018-11-29T17:35:17.286Z,66.40
2018-11-29T17:37:46.430Z,66.00
2018-11-29T17:40:16.589Z,66.10
2018-11-29T17:42:45.606Z,65.90
2018-11-29T17:45:19.868Z,65.80
2018-11-29T17:47:49.336Z,65.80
2018-11-29T17:50:22.527Z,66.10
2018-11-29T17:52:51.612Z,66.00
2018-11-29T17:55:20.566Z,66.10
2018-11-29T17:57:49.513Z,66.10
2018-11-29T18:00:19.922Z,66.60
2018-11-29T18:02:48.899Z,66.90
2018-11-29T18:05:17.928Z,66.90
2018-11-29T18:07:49.880Z,66.70
2018-11-29T18:10:28.083Z,66.80
2018-11-29T18:13:02.837Z,66.90
2018-11-29T18:15:33.684Z,67.20
2018-11-29T18:18:02.710Z,67.70
2018-11-29T18:20:31.630Z,68.50
2018-11-29T18:23:00.669Z,67.50
2018-11-29T18:25:29.641Z,67.40
2018-11-29T18:27:58.560Z,67.00
2018-11-29T18:30:27.537Z,67.30
2018-11-29T18:32:56.719Z,66.90
2018-11-29T18:35:25.673Z,66.90
2018-11-29T18:37:54.620Z,67.80
2018-11-29T18:40:23.579Z,66.80
2018-11-29T18:42:55.930Z,66.80
2018-11-29T18:45:25.039Z,66.70
2018-11-29T18:47:54.435Z,66.60
2018-11-29T18:50:24.249Z,66.50
2018-11-29T18:52:53.358Z,66.80
2018-11-29T18:55:24.413Z,66.40
2018-11-29T18:57:54.340Z,66.40
2018-11-29T19:00:26.363Z,66.80
2018-11-29T19:02:57.092Z,66.90
2018-11-29T19:05:24.348Z,67.10
2018-11-29T19:07:53.307Z,66.70
2018-11-29T19:10:22.911Z,67.10
2018-11-29T19:12:56.215Z,67.00
2018-11-29T19:15:25.286Z,66.80
2018-11-29T19:17:54.268Z,66.40
2018-11-29T19:20:23.304Z,66.30
2018-11-29T19:22:52.279Z,67.20
2018-11-29T19:25:21.558Z,66.80
2018-11-29T19:27:50.514Z,67.00
2018-11-29T19:30:24.498Z,67.10
2018-11-29T19:33:25.999Z,67.60
2018-11-29T19:35:55.732Z,67.50
2018-11-29T19:38:24.667Z,67.50
2018-11-29T19:40:53.643Z,67.70
2018-11-29T19:43:22.562Z,67.70
2018-11-29T19:45:51.507Z,67.80
2018-11-29T19:48:21.139Z,67.20
2018-11-29T19:50:50.082Z,67.70
2018-11-29T19:53:22.658Z,67.80
2018-11-29T19:55:53.675Z,67.70
2018-11-29T19:58:22.712Z,67.90
2018-11-29T20:00:51.742Z,67.70
2018-11-29T20:03:20.733Z,67.50
2018-11-29T20:05:49.859Z,67.40
2018-11-29T20:08:18.854Z,67.60
2018-11-29T20:10:48.140Z,67.20
2018-11-29T20:13:17.195Z,67.40
2018-11-29T20:15:50.303Z,67.90
2018-11-29T20:18:19.275Z,68.10
2018-11-29T20:20:48.240Z,67.90
2018-11-29T20:23:17.154Z,68.30
2018-11-29T20:25:46.805Z,68.20
2018-11-29T20:28:15.972Z,68.20
2018-11-29T20:30:44.887Z,67.80
2018-11-29T20:33:13.867Z,68.00
2018-11-29T20:35:43.477Z,67.90
2018-11-29T20:38:12.438Z,68.70
2018-11-29T20:40:42.896Z,68.70
2018-11-29T20:43:11.928Z,68.70
2018-11-29T20:45:44.202Z,68.30
2018-11-29T20:48:19.626Z,68.70
2018-11-29T20:50:48.987Z,68.70
2018-11-29T20:53:21.784Z,68.70
2018-11-29T20:55:50.779Z,68.70
2018-11-29T20:58:19.694Z,68.70
2018-11-29T21:00:48.627Z,68.70
2018-11-29T21:03:17.641Z,68.70
2018-11-29T21:05:46.651Z,68.70
2018-11-29T21:08:15.594Z,68.70
2018-11-29T21:10:44.597Z,68.70
2018-11-29T21:13:13.712Z,68.00
2018-11-29T21:15:43.254Z,68.10
2018-11-29T21:18:14.572Z,67.90
2018-11-29T21:20:44.066Z,68.70
2018-11-29T21:23:14.559Z,68.30
2018-11-29T21:25:43.816Z,68.10
2018-11-29T21:28:12.746Z,68.00
2018-11-29T21:30:41.684Z,68.00
2018-11-29T21:33:11.138Z,67.90
2018-11-29T21:35:40.072Z,68.00
2018-11-29T21:38:16.165Z,68.20
2018-11-29T21:41:00.025Z,67.90
2018-11-29T21:43:29.041Z,67.60
2018-11-29T21:45:57.961Z,67.90
2018-11-29T21:48:26.873Z,67.70
2018-11-29T21:50:55.890Z,67.20
2018-11-29T21:53:24.820Z,67.20
2018-11-29T21:55:53.951Z,67.00
2018-11-29T21:58:22.915Z,66.90
2018-11-29T22:00:51.840Z,67.20
2018-11-29T22:03:20.737Z,67.00
2018-11-29T22:05:49.681Z,67.90
2018-11-29T22:08:18.617Z,67.50
2018-11-29T22:10:47.555Z,67.10
2018-11-29T22:13:16.646Z,67.90
2018-11-29T22:15:45.589Z,67.40
2018-11-29T22:18:20.746Z,67.40
2018-11-29T22:20:58.533Z,67.20
2018-11-29T22:23:27.473Z,67.20
2018-11-29T22:25:57.761Z,67.40
2018-11-29T22:28:26.770Z,67.20
2018-11-29T22:30:56.193Z,67.30
2018-11-29T22:33:25.234Z,67.40
2018-11-29T22:35:54.189Z,67.70
2018-11-29T22:38:23.193Z,67.00
2018-11-29T22:40:52.256Z,67.70
2018-11-29T22:43:21.248Z,67.40
2018-11-29T22:45:50.228Z,67.20
2018-11-29T22:48:19.216Z,66.80
2018-11-29T22:50:48.913Z,66.50
2018-11-29T22:53:17.919Z,66.20
2018-11-29T22:55:46.871Z,66.60
2018-11-29T22:58:15.839Z,66.30
2018-11-29T23:00:50.204Z,66.50
2018-11-29T23:03:19.251Z,66.30
2018-11-29T23:05:48.238Z,66.70
2018-11-29T23:08:17.196Z,66.40
2018-11-29T23:10:46.171Z,67.00
2018-11-29T23:13:15.123Z,66.60
2018-11-29T23:15:44.254Z,66.40
2018-11-29T23:18:13.231Z,66.40
2018-11-29T23:20:42.184Z,67.00
2018-11-29T23:23:11.128Z,66.20
2018-11-29T23:25:40.186Z,66.20
2018-11-29T23:28:09.150Z,66.70
2018-11-29T23:30:38.144Z,66.70
2018-11-29T23:33:07.164Z,67.20
2018-11-29T23:35:36.083Z,67.00
2018-11-29T23:38:05.407Z,66.50
2018-11-29T23:40:34.344Z,66.10
2018-11-29T23:43:03.280Z,66.00
2018-11-29T23:45:32.254Z,65.80
2018-11-29T23:48:01.182Z,66.20
2018-11-29T23:50:30.156Z,65.20
2018-11-29T23:52:59.116Z,65.70
2018-11-29T23:55:28.085Z,65.90
2018-11-29T23:57:57.059Z,65.80
